Time;durP1;ratioP1;P1;durP2;ratioP2;P2;SDS_P1;SDS_P2;PMS_P1;PMS_P2;Temp;Humidity;BMP_temperature;BMP_pressure;BME280_temperature;BME280_humidity;BME280_pressure;Samples;Min_cycle;Max_cycle;Signal;HPM_P1;HPM_P2
2023/08/03 00:00:58;;;;;;;2.53;2.13;;;;;;;;;;5011675;28;20221;-85
2023/08/03 00:03:27;;;;;;;12.10;3.33;;;;;;;;;;5011867;28;20222;-84
2023/08/03 00:05:56;;;;;;;1.23;1.13;;;;;;;;;;5012880;28;20325;-86
2023/08/03 00:08:25;;;;;;;5.37;2.13;;;;;;;;;;5016484;28;20398;-85
2023/08/03 00:10:53;;;;;;;5.17;2.67;;;;;;;;;;5016028;28;20208;-86
2023/08/03 00:13:22;;;;;;;5.20;1.43;;;;;;;;;;5015723;28;20222;-86
2023/08/03 00:15:50;;;;;;;5.13;2.27;;;;;;;;;;5015512;28;20222;-86
2023/08/03 00:18:19;;;;;;;0.77;0.77;;;;;;;;;;5015724;28;20202;-85
2023/08/03 00:20:50;;;;;;;2.97;1.00;;;;;;;;;;5015064;28;20204;-85
2023/08/03 00:23:18;;;;;;;5.13;2.17;;;;;;;;;;5016014;28;20218;-85
2023/08/03 00:25:47;;;;;;;8.57;2.33;;;;;;;;;;5015146;28;20199;-85
2023/08/03 00:28:15;;;;;;;2.57;1.60;;;;;;;;;;5015410;28;20211;-85
2023/08/03 00:30:44;;;;;;;2.57;1.30;;;;;;;;;;5015976;28;20399;-86
2023/08/03 00:33:12;;;;;;;2.47;1.13;;;;;;;;;;5015310;28;20219;-85
2023/08/03 00:35:40;;;;;;;4.23;0.90;;;;;;;;;;5014919;28;20201;-85
2023/08/03 00:38:10;;;;;;;5.30;1.63;;;;;;;;;;5015396;28;20203;-86
2023/08/03 00:40:39;;;;;;;1.33;0.83;;;;;;;;;;5015778;28;20215;-86
2023/08/03 00:43:07;;;;;;;5.13;1.83;;;;;;;;;;5015603;28;20206;-85
2023/08/03 00:45:36;;;;;;;1.60;1.13;;;;;;;;;;5017332;28;20196;-85
2023/08/03 00:48:04;;;;;;;8.57;1.70;;;;;;;;;;5017794;28;20267;-86
2023/08/03 00:50:33;;;;;;;5.53;1.63;;;;;;;;;;5017788;28;20202;-85
2023/08/03 00:53:01;;;;;;;10.20;2.33;;;;;;;;;;5017905;28;20221;-86
2023/08/03 00:55:31;;;;;;;0.80;0.80;;;;;;;;;;5018913;28;20210;-85
2023/08/03 00:58:00;;;;;;;5.33;1.17;;;;;;;;;;5019464;28;20199;-86
2023/08/03 01:00:28;;;;;;;3.77;1.47;;;;;;;;;;5019433;28;20210;-85
2023/08/03 01:02:57;;;;;;;0.57;0.53;;;;;;;;;;5020021;28;20211;-85
2023/08/03 01:05:26;;;;;;;2.60;1.17;;;;;;;;;;5021854;28;20209;-85
2023/08/03 01:07:55;;;;;;;4.70;1.37;;;;;;;;;;5021448;28;20234;-85
2023/08/03 01:10:24;;;;;;;3.97;1.13;;;;;;;;;;5021325;28;20413;-85
2023/08/03 01:12:54;;;;;;;6.70;2.33;;;;;;;;;;5023190;28;20226;-85
2023/08/03 01:15:22;;;;;;;4.40;2.30;;;;;;;;;;5022650;28;20204;-85
2023/08/03 01:17:51;;;;;;;4.03;0.87;;;;;;;;;;5023231;28;20208;-85
2023/08/03 01:20:20;;;;;;;3.00;1.03;;;;;;;;;;5023933;28;20200;-85
2023/08/03 01:22:50;;;;;;;2.47;1.33;;;;;;;;;;5023950;28;20453;-86
2023/08/03 01:25:18;;;;;;;4.73;1.57;;;;;;;;;;5024221;28;20211;-85
2023/08/03 01:27:49;;;;;;;2.80;1.37;;;;;;;;;;5024402;28;20210;-85
2023/08/03 01:30:18;;;;;;;2.67;1.60;;;;;;;;;;5024345;28;20188;-86
2023/08/03 01:32:47;;;;;;;1.00;0.80;;;;;;;;;;5024758;28;20215;-85
2023/08/03 01:35:16;;;;;;;0.60;0.60;;;;;;;;;;5025465;28;20210;-85
2023/08/03 01:37:45;;;;;;;1.80;1.50;;;;;;;;;;5024919;28;20200;-85
2023/08/03 01:40:15;;;;;;;3.47;1.53;;;;;;;;;;5025978;28;20207;-85
2023/08/03 01:42:45;;;;;;;1.33;0.93;;;;;;;;;;5025722;28;20211;-85
2023/08/03 01:45:14;;;;;;;0.60;0.60;;;;;;;;;;5025398;28;20195;-85
2023/08/03 01:47:43;;;;;;;6.87;1.53;;;;;;;;;;5026049;28;20201;-85
2023/08/03 01:50:13;;;;;;;0.80;0.80;;;;;;;;;;5026333;28;20231;-85
2023/08/03 01:52:42;;;;;;;1.43;1.30;;;;;;;;;;5025984;28;20210;-85
2023/08/03 01:55:10;;;;;;;1.37;1.27;;;;;;;;;;5024827;28;20290;-85
2023/08/03 01:57:40;;;;;;;1.20;1.10;;;;;;;;;;5025387;28;20208;-85
2023/08/03 02:00:09;;;;;;;2.67;1.33;;;;;;;;;;5024565;28;20187;-85
2023/08/03 02:02:37;;;;;;;2.37;0.70;;;;;;;;;;5024913;28;20271;-85
2023/08/03 02:05:06;;;;;;;5.23;2.20;;;;;;;;;;5024688;28;20203;-85
2023/08/03 02:07:45;;;;;;;0.57;0.57;;;;;;;;;;5023875;28;20300;-85
2023/08/03 02:10:14;;;;;;;1.07;0.83;;;;;;;;;;5023688;28;20207;-84
2023/08/03 02:12:44;;;;;;;3.37;1.67;;;;;;;;;;5022483;28;20288;-85
2023/08/03 02:15:13;;;;;;;0.97;0.97;;;;;;;;;;5022350;28;20199;-85
2023/08/03 02:17:42;;;;;;;1.23;1.23;;;;;;;;;;5021906;28;20200;-85
2023/08/03 02:20:11;;;;;;;3.53;2.00;;;;;;;;;;5020701;28;20196;-85
2023/08/03 02:22:40;;;;;;;4.73;3.23;;;;;;;;;;5020050;28;20205;-85
2023/08/03 02:25:09;;;;;;;1.93;1.63;;;;;;;;;;5020127;28;20203;-86
2023/08/03 02:27:38;;;;;;;1.40;0.73;;;;;;;;;;5019627;28;20213;-86
2023/08/03 02:30:09;;;;;;;4.80;2.53;;;;;;;;;;5018330;28;20209;-86
2023/08/03 02:32:37;;;;;;;1.70;1.13;;;;;;;;;;5019049;28;20203;-85
2023/08/03 02:35:06;;;;;;;3.47;1.10;;;;;;;;;;5018108;28;20227;-86
2023/08/03 02:37:35;;;;;;;3.27;1.67;;;;;;;;;;5017587;28;20200;-85
2023/08/03 02:40:04;;;;;;;0.93;0.93;;;;;;;;;;5016639;28;20200;-85
2023/08/03 02:42:32;;;;;;;5.50;2.60;;;;;;;;;;5016835;28;20210;-86
2023/08/03 02:45:01;;;;;;;0.77;0.77;;;;;;;;;;5016273;28;20230;-85
2023/08/03 02:47:30;;;;;;;1.20;1.20;;;;;;;;;;5015162;28;20215;-86
2023/08/03 02:49:59;;;;;;;1.50;1.17;;;;;;;;;;5014748;28;20201;-86
2023/08/03 02:52:27;;;;;;;0.77;0.77;;;;;;;;;;5014466;28;20200;-86
2023/08/03 02:54:56;;;;;;;9.03;3.03;;;;;;;;;;5014356;28;20234;-85
2023/08/03 02:57:24;;;;;;;6.13;2.13;;;;;;;;;;5013795;28;20203;-85
2023/08/03 02:59:53;;;;;;;2.43;1.40;;;;;;;;;;5013523;28;20298;-85
2023/08/03 03:02:22;;;;;;;2.37;1.20;;;;;;;;;;5013725;28;20214;-85
2023/08/03 03:04:52;;;;;;;2.07;1.97;;;;;;;;;;5013114;28;20517;-85
2023/08/03 03:07:20;;;;;;;1.60;0.97;;;;;;;;;;5013294;28;20235;-85
2023/08/03 03:09:49;;;;;;;3.60;1.53;;;;;;;;;;5013135;28;20239;-85
2023/08/03 03:12:17;;;;;;;3.63;2.20;;;;;;;;;;5012616;28;20208;-84
2023/08/03 03:14:46;;;;;;;4.07;1.60;;;;;;;;;;5012139;28;20350;-84
2023/08/03 03:17:14;;;;;;;7.20;1.93;;;;;;;;;;5012611;28;20230;-84
2023/08/03 03:19:43;;;;;;;2.40;0.93;;;;;;;;;;5012687;28;20204;-84
2023/08/03 03:22:13;;;;;;;4.87;2.00;;;;;;;;;;5012501;28;20210;-85
2023/08/03 03:24:41;;;;;;;6.63;2.27;;;;;;;;;;5012456;28;20249;-85
2023/08/03 03:27:09;;;;;;;2.27;0.90;;;;;;;;;;5012313;28;20211;-84
2023/08/03 03:29:38;;;;;;;1.70;1.40;;;;;;;;;;5012128;28;20215;-83
2023/08/03 03:32:06;;;;;;;1.90;1.47;;;;;;;;;;5012070;28;20250;-83
2023/08/03 03:34:35;;;;;;;4.93;1.77;;;;;;;;;;5012680;28;20272;-84
2023/08/03 03:37:03;;;;;;;4.90;2.93;;;;;;;;;;5012987;28;20262;-84
2023/08/03 03:39:33;;;;;;;3.37;1.40;;;;;;;;;;5012342;28;20215;-84
2023/08/03 03:42:01;;;;;;;2.40;2.30;;;;;;;;;;5012939;28;20203;-84
2023/08/03 03:44:30;;;;;;;7.80;1.23;;;;;;;;;;5016381;28;20203;-84
2023/08/03 03:46:59;;;;;;;4.40;2.63;;;;;;;;;;5016908;28;20215;-83
2023/08/03 03:49:27;;;;;;;4.03;1.23;;;;;;;;;;5015888;28;20217;-84
2023/08/03 03:51:56;;;;;;;1.20;1.03;;;;;;;;;;5016484;28;20252;-84
2023/08/03 03:54:24;;;;;;;5.57;1.60;;;;;;;;;;5016316;28;20219;-84
2023/08/03 03:56:55;;;;;;;7.50;2.03;;;;;;;;;;5016258;28;20259;-84
2023/08/03 03:59:23;;;;;;;7.83;2.00;;;;;;;;;;5015534;28;20203;-84
2023/08/03 04:01:52;;;;;;;1.27;0.53;;;;;;;;;;5016030;28;20210;-84
2023/08/03 04:04:20;;;;;;;3.60;2.30;;;;;;;;;;5015583;28;20227;-84
2023/08/03 04:06:49;;;;;;;3.00;0.70;;;;;;;;;;5015187;28;20242;-84
2023/08/03 04:09:17;;;;;;;1.30;0.57;;;;;;;;;;5015514;28;20286;-82
2023/08/03 04:11:46;;;;;;;1.17;1.17;;;;;;;;;;5016063;28;20196;-82
2023/08/03 04:14:16;;;;;;;2.17;0.83;;;;;;;;;;5015723;28;20220;-82
2023/08/03 04:16:44;;;;;;;1.17;0.90;;;;;;;;;;5016188;28;20207;-82
2023/08/03 04:19:13;;;;;;;0.83;0.83;;;;;;;;;;5015851;28;20207;-82
2023/08/03 04:21:41;;;;;;;2.47;1.20;;;;;;;;;;5015662;28;20203;-84
2023/08/03 04:24:10;;;;;;;1.43;0.63;;;;;;;;;;5015259;28;20203;-84
2023/08/03 04:26:39;;;;;;;2.83;1.53;;;;;;;;;;5015111;28;20204;-84
2023/08/03 04:29:07;;;;;;;6.83;2.63;;;;;;;;;;5015135;28;20211;-84
2023/08/03 04:31:37;;;;;;;0.60;0.60;;;;;;;;;;5015078;28;20203;-84
2023/08/03 04:34:05;;;;;;;0.93;0.73;;;;;;;;;;5014856;28;20199;-84
2023/08/03 04:36:34;;;;;;;1.00;1.00;;;;;;;;;;5015315;28;20257;-82
2023/08/03 04:39:03;;;;;;;1.23;1.13;;;;;;;;;;5015522;28;20204;-82
2023/08/03 04:41:31;;;;;;;0.87;0.87;;;;;;;;;;5014801;28;20204;-82
2023/08/03 04:44:00;;;;;;;1.33;1.23;;;;;;;;;;5015269;28;20200;-82
2023/08/03 04:46:28;;;;;;;3.00;1.20;;;;;;;;;;5015087;28;20215;-82
2023/08/03 04:48:58;;;;;;;2.47;0.90;;;;;;;;;;5014990;28;20211;-81
2023/08/03 04:51:27;;;;;;;10.50;1.47;;;;;;;;;;5014753;28;20204;-82
2023/08/03 04:53:55;;;;;;;4.90;1.63;;;;;;;;;;5014368;28;20193;-82
2023/08/03 04:56:24;;;;;;;6.87;1.80;;;;;;;;;;5014989;28;20231;-81
2023/08/03 04:58:52;;;;;;;2.00;0.50;;;;;;;;;;5014854;28;20200;-81
2023/08/03 05:01:20;;;;;;;4.37;2.10;;;;;;;;;;5014471;28;20207;-81
2023/08/03 05:03:49;;;;;;;1.40;1.30;;;;;;;;;;5014970;28;20220;-81
2023/08/03 05:06:19;;;;;;;6.87;2.53;;;;;;;;;;5014565;28;20227;-81
2023/08/03 05:08:47;;;;;;;4.97;1.57;;;;;;;;;;5014464;28;20207;-81
2023/08/03 05:11:16;;;;;;;0.70;0.70;;;;;;;;;;5014242;28;20200;-81
2023/08/03 05:13:44;;;;;;;8.77;3.97;;;;;;;;;;5014656;28;20207;-81
2023/08/03 05:16:13;;;;;;;19.47;1.83;;;;;;;;;;5014652;28;20219;-81
2023/08/03 05:18:41;;;;;;;1.47;1.37;;;;;;;;;;5014504;28;20200;-81
2023/08/03 05:21:10;;;;;;;2.23;0.37;;;;;;;;;;5014356;28;20200;-81
2023/08/03 05:23:39;;;;;;;3.53;0.97;;;;;;;;;;5014656;28;20203;-82
2023/08/03 05:26:08;;;;;;;11.50;2.97;;;;;;;;;;5014316;28;20203;-82
2023/08/03 05:28:36;;;;;;;1.87;0.93;;;;;;;;;;5014375;28;20207;-82
2023/08/03 05:31:06;;;;;;;1.47;0.80;;;;;;;;;;5014077;28;20195;-82
2023/08/03 05:33:35;;;;;;;2.03;1.83;;;;;;;;;;5014234;28;20214;-82
2023/08/03 05:36:04;;;;;;;0.60;0.60;;;;;;;;;;5014245;28;20227;-82
2023/08/03 05:38:33;;;;;;;0.87;0.87;;;;;;;;;;5014293;28;20201;-82
2023/08/03 05:41:02;;;;;;;8.17;2.67;;;;;;;;;;5014251;28;20255;-84
2023/08/03 05:43:31;;;;;;;3.87;2.20;;;;;;;;;;5013383;28;20461;-85
2023/08/03 05:46:02;;;;;;;4.40;1.93;;;;;;;;;;5013545;28;20200;-84
2023/08/03 05:48:31;;;;;;;1.53;1.43;;;;;;;;;;5013821;28;20206;-84
2023/08/03 05:51:00;;;;;;;2.17;1.37;;;;;;;;;;5013306;28;20195;-85
2023/08/03 05:53:28;;;;;;;0.30;0.30;;;;;;;;;;5013153;28;20218;-84
2023/08/03 05:55:57;;;;;;;0.60;0.60;;;;;;;;;;5013668;28;20216;-84
2023/08/03 05:58:40;;;;;;;5.53;2.00;;;;;;;;;;5013751;28;20250;-84
2023/08/03 06:01:11;;;;;;;2.23;1.57;;;;;;;;;;5012842;28;20209;-84
2023/08/03 06:03:43;;;;;;;1.20;1.13;;;;;;;;;;5013589;28;20269;-84
2023/08/03 06:06:12;;;;;;;5.30;1.47;;;;;;;;;;5012652;28;20240;-85
2023/08/03 06:08:45;;;;;;;1.83;0.97;;;;;;;;;;5013357;28;20203;-85
2023/08/03 06:11:14;;;;;;;1.30;0.97;;;;;;;;;;5012783;28;20204;-85
2023/08/03 06:13:54;;;;;;;3.10;1.53;;;;;;;;;;5013357;28;20386;-85
2023/08/03 06:16:24;;;;;;;11.43;0.70;;;;;;;;;;5013110;28;20227;-85
2023/08/03 06:18:53;;;;;;;1.27;1.17;;;;;;;;;;5012958;28;20227;-85
2023/08/03 06:21:22;;;;;;;1.57;1.47;;;;;;;;;;5012723;28;20204;-85
2023/08/03 06:23:52;;;;;;;1.63;0.97;;;;;;;;;;5013171;28;20268;-85
2023/08/03 06:26:21;;;;;;;4.43;1.00;;;;;;;;;;5013217;28;20204;-85
2023/08/03 06:28:56;;;;;;;0.80;0.80;;;;;;;;;;5012856;28;20201;-85
2023/08/03 06:31:31;;;;;;;1.07;1.07;;;;;;;;;;5012723;28;20204;-85
2023/08/03 06:34:02;;;;;;;0.30;0.30;;;;;;;;;;5012947;28;20242;-85
2023/08/03 06:36:31;;;;;;;0.70;0.70;;;;;;;;;;5012699;28;20232;-85
2023/08/03 06:38:59;;;;;;;0.50;0.40;;;;;;;;;;5013409;28;20207;-83
2023/08/03 06:41:28;;;;;;;4.67;1.67;;;;;;;;;;5012476;28;20199;-83
2023/08/03 06:43:58;;;;;;;0.30;0.30;;;;;;;;;;5012916;28;20208;-83
2023/08/03 06:46:27;;;;;;;0.30;0.30;;;;;;;;;;5012188;28;20200;-83
2023/08/03 06:48:56;;;;;;;9.57;1.97;;;;;;;;;;5012771;28;20212;-84
2023/08/03 06:51:24;;;;;;;4.23;0.50;;;;;;;;;;5012413;28;20207;-84
2023/08/03 06:53:53;;;;;;;1.50;0.80;;;;;;;;;;5012175;28;20199;-84
2023/08/03 06:56:21;;;;;;;2.23;1.00;;;;;;;;;;5012172;28;20234;-84
2023/08/03 06:58:50;;;;;;;8.37;1.07;;;;;;;;;;5012626;28;20199;-84
2023/08/03 07:01:19;;;;;;;0.50;0.50;;;;;;;;;;5012659;28;20209;-86
2023/08/03 07:03:48;;;;;;;1.23;0.80;;;;;;;;;;5013192;28;20220;-86
2023/08/03 07:06:17;;;;;;;4.23;3.63;;;;;;;;;;5012620;28;20224;-85
2023/08/03 07:08:45;;;;;;;1.53;1.43;;;;;;;;;;5013121;28;20216;-85
2023/08/03 07:11:14;;;;;;;1.63;1.30;;;;;;;;;;5012479;28;20206;-85
2023/08/03 07:13:42;;;;;;;2.80;2.13;;;;;;;;;;5013093;28;20266;-86
2023/08/03 07:16:13;;;;;;;0.97;0.97;;;;;;;;;;5012751;28;20267;-85
2023/08/03 07:18:43;;;;;;;1.60;1.10;;;;;;;;;;5012959;28;20285;-85
2023/08/03 07:21:12;;;;;;;1.33;1.23;;;;;;;;;;5012546;28;20208;-85
2023/08/03 07:23:41;;;;;;;2.23;1.20;;;;;;;;;;5013001;28;20210;-85
2023/08/03 07:26:15;;;;;;;1.03;1.03;;;;;;;;;;5013636;28;20201;-85
2023/08/03 07:28:43;;;;;;;0.63;0.63;;;;;;;;;;5012410;28;20204;-85
2023/08/03 07:31:14;;;;;;;3.73;0.50;;;;;;;;;;5012023;28;20199;-85
2023/08/03 07:33:44;;;;;;;1.60;1.10;;;;;;;;;;5012974;28;20220;-85
2023/08/03 07:36:17;;;;;;;5.33;1.13;;;;;;;;;;5012817;28;20234;-85
2023/08/03 07:38:45;;;;;;;1.03;1.03;;;;;;;;;;5012084;28;20318;-84
2023/08/03 07:41:14;;;;;;;2.33;1.70;;;;;;;;;;5012406;28;20206;-85
2023/08/03 07:43:42;;;;;;;2.10;1.60;;;;;;;;;;5012255;28;20197;-85
2023/08/03 07:46:11;;;;;;;3.33;1.73;;;;;;;;;;5012470;28;20207;-81
2023/08/03 07:48:40;;;;;;;2.43;1.53;;;;;;;;;;5012765;28;20220;-82
2023/08/03 07:51:14;;;;;;;1.23;1.20;;;;;;;;;;5013017;28;20200;-82
2023/08/03 07:53:44;;;;;;;1.37;1.30;;;;;;;;;;5012656;28;20202;-82
2023/08/03 07:56:16;;;;;;;0.70;0.70;;;;;;;;;;5012270;28;20223;-82
2023/08/03 07:58:46;;;;;;;1.70;1.00;;;;;;;;;;5012495;28;20210;-83
2023/08/03 08:01:14;;;;;;;1.30;0.97;;;;;;;;;;5012499;28;20205;-83
2023/08/03 08:03:43;;;;;;;0.70;0.70;;;;;;;;;;5011736;28;20290;-83
2023/08/03 08:06:17;;;;;;;4.97;2.17;;;;;;;;;;5011682;28;20235;-82
2023/08/03 08:08:46;;;;;;;1.20;1.20;;;;;;;;;;5011791;28;20213;-83
2023/08/03 08:11:15;;;;;;;0.60;0.60;;;;;;;;;;5011633;28;20202;-83
2023/08/03 08:13:44;;;;;;;5.50;2.03;;;;;;;;;;5012034;28;20205;-82
2023/08/03 08:16:15;;;;;;;4.07;2.13;;;;;;;;;;5011672;28;20272;-83
2023/08/03 08:18:44;;;;;;;4.43;2.10;;;;;;;;;;5012292;28;20202;-83
2023/08/03 08:21:13;;;;;;;5.40;1.60;;;;;;;;;;5011635;28;20226;-82
2023/08/03 08:23:43;;;;;;;3.70;1.37;;;;;;;;;;5011821;28;20205;-82
2023/08/03 08:26:13;;;;;;;3.10;1.70;;;;;;;;;;5012397;28;20214;-82
2023/08/03 08:28:42;;;;;;;8.30;2.13;;;;;;;;;;5013592;28;20261;-82
2023/08/03 08:31:28;;;;;;;2.83;1.50;;;;;;;;;;5015578;28;20268;-83
2023/08/03 08:34:17;;;;;;;5.30;1.93;;;;;;;;;;5015194;28;20303;-84
2023/08/03 08:36:46;;;;;;;3.13;1.13;;;;;;;;;;5015716;28;20218;-83
2023/08/03 08:39:16;;;;;;;4.03;1.17;;;;;;;;;;5015280;28;20270;-82
2023/08/03 08:41:44;;;;;;;1.83;1.63;;;;;;;;;;5015501;28;20226;-82
2023/08/03 08:44:17;;;;;;;1.33;0.93;;;;;;;;;;5015694;28;20205;-86
2023/08/03 08:46:45;;;;;;;1.47;1.27;;;;;;;;;;5015931;28;20486;-86
2023/08/03 08:49:14;;;;;;;6.20;1.63;;;;;;;;;;5015554;28;20273;-85
2023/08/03 08:51:48;;;;;;;3.80;1.63;;;;;;;;;;5015542;28;20333;-86
2023/08/03 08:54:22;;;;;;;2.20;1.17;;;;;;;;;;5015948;28;20213;-85
2023/08/03 08:56:54;;;;;;;2.93;1.00;;;;;;;;;;5014930;28;20261;-85
2023/08/03 08:59:26;;;;;;;2.10;0.83;;;;;;;;;;5015032;28;20207;-86
2023/08/03 09:01:59;;;;;;;2.10;0.97;;;;;;;;;;5015559;28;20200;-86
2023/08/03 09:04:29;;;;;;;11.23;1.80;;;;;;;;;;5015620;28;20249;-85
2023/08/03 09:07:00;;;;;;;5.93;1.57;;;;;;;;;;5014984;28;20223;-85
2023/08/03 09:09:33;;;;;;;3.00;1.40;;;;;;;;;;5015457;28;20277;-85
2023/08/03 09:12:02;;;;;;;2.63;1.50;;;;;;;;;;5015088;28;20236;-85
2023/08/03 09:14:31;;;;;;;1.23;0.90;;;;;;;;;;5015297;28;20210;-85
2023/08/03 09:17:16;;;;;;;4.43;1.23;;;;;;;;;;5015225;28;20355;-87
2023/08/03 09:19:46;;;;;;;1.70;1.60;;;;;;;;;;5015582;28;20206;-86
2023/08/03 09:22:17;;;;;;;2.60;1.30;;;;;;;;;;5015389;28;20205;-85
2023/08/03 09:25:01;;;;;;;0.80;0.80;;;;;;;;;;5018144;28;20207;-88
2023/08/03 09:27:30;;;;;;;3.50;2.10;;;;;;;;;;5019800;28;20470;-87
2023/08/03 09:30:02;;;;;;;1.43;1.33;;;;;;;;;;5015910;28;20209;-87
2023/08/03 09:32:41;;;;;;;1.97;1.50;;;;;;;;;;5015516;28;20257;-86
2023/08/03 09:35:19;;;;;;;3.20;1.53;;;;;;;;;;5014681;28;20206;-85
2023/08/03 09:37:48;;;;;;;5.30;2.77;;;;;;;;;;5015296;28;20238;-86
2023/08/03 09:40:19;;;;;;;9.80;3.10;;;;;;;;;;5014973;28;20200;-87
2023/08/03 09:42:49;;;;;;;6.33;3.03;;;;;;;;;;5015141;28;20199;-87
2023/08/03 09:45:18;;;;;;;6.20;3.57;;;;;;;;;;5015367;28;20211;-87
2023/08/03 09:47:50;;;;;;;7.97;2.13;;;;;;;;;;5015723;28;20199;-89
2023/08/03 09:50:20;;;;;;;4.93;2.00;;;;;;;;;;5016520;28;20204;-87
2023/08/03 09:52:50;;;;;;;2.13;1.83;;;;;;;;;;5015830;28;20239;-87
2023/08/03 09:55:24;;;;;;;4.70;1.80;;;;;;;;;;5016153;28;20208;-88
2023/08/03 09:58:01;;;;;;;3.90;1.37;;;;;;;;;;5017196;28;20214;-87
2023/08/03 10:00:30;;;;;;;6.27;2.20;;;;;;;;;;5027105;28;20210;-87
2023/08/03 10:03:02;;;;;;;2.27;1.60;;;;;;;;;;5028265;28;20220;-87
2023/08/03 10:05:31;;;;;;;8.03;1.90;;;;;;;;;;5030156;28;20242;-87
2023/08/03 10:08:07;;;;;;;3.33;2.13;;;;;;;;;;5029432;28;20203;-86
2023/08/03 10:10:40;;;;;;;6.77;2.23;;;;;;;;;;5028048;28;20203;-87
2023/08/03 10:13:10;;;;;;;6.23;1.70;;;;;;;;;;5027878;28;20299;-87
2023/08/03 10:15:43;;;;;;;4.67;2.10;;;;;;;;;;5026443;28;20211;-88
2023/08/03 10:18:12;;;;;;;6.17;1.80;;;;;;;;;;5024519;28;20219;-88
2023/08/03 10:20:41;;;;;;;2.53;1.33;;;;;;;;;;5020750;28;20204;-86
2023/08/03 10:23:11;;;;;;;3.53;2.30;;;;;;;;;;5018417;28;20200;-87
2023/08/03 10:25:54;;;;;;;3.27;1.70;;;;;;;;;;5018261;28;20208;-87
2023/08/03 10:28:23;;;;;;;5.30;2.50;;;;;;;;;;5017122;28;20231;-86
2023/08/03 10:31:10;;;;;;;2.20;1.33;;;;;;;;;;5016309;28;20203;-86
2023/08/03 10:34:00;;;;;;;3.63;1.57;;;;;;;;;;5015247;28;20220;-87
2023/08/03 10:36:38;;;;;;;4.30;1.87;;;;;;;;;;5011418;28;20231;-86
2023/08/03 10:39:14;;;;;;;2.70;1.40;;;;;;;;;;5014340;28;20234;-88
2023/08/03 10:41:45;;;;;;;4.37;2.00;;;;;;;;;;5013641;28;20206;-88
2023/08/03 10:44:26;;;;;;;4.37;1.80;;;;;;;;;;5013148;28;20271;-85
2023/08/03 10:46:56;;;;;;;5.33;2.00;;;;;;;;;;5012961;28;20204;-86
2023/08/03 10:49:43;;;;;;;3.73;1.57;;;;;;;;;;5013214;28;20257;-86
2023/08/03 10:52:19;;;;;;;2.27;1.87;;;;;;;;;;5012145;28;20204;-87
2023/08/03 10:54:48;;;;;;;3.50;1.60;;;;;;;;;;5012678;28;20231;-86
2023/08/03 10:57:19;;;;;;;4.20;1.50;;;;;;;;;;5013127;28;20287;-87
2023/08/03 10:59:48;;;;;;;2.60;1.57;;;;;;;;;;5012881;28;20224;-87
2023/08/03 11:02:20;;;;;;;7.73;2.20;;;;;;;;;;5012168;28;20197;-86
2023/08/03 11:04:51;;;;;;;3.27;1.80;;;;;;;;;;5012971;28;20292;-86
2023/08/03 11:07:22;;;;;;;3.23;1.80;;;;;;;;;;5012271;28;20240;-87
2023/08/03 11:09:52;;;;;;;7.27;1.70;;;;;;;;;;5012737;28;20208;-86
2023/08/03 11:12:23;;;;;;;5.73;2.27;;;;;;;;;;5012219;28;20197;-88
2023/08/03 11:14:53;;;;;;;3.50;2.23;;;;;;;;;;5012869;28;20233;-87
2023/08/03 11:17:25;;;;;;;7.30;1.60;;;;;;;;;;5012619;28;20310;-86
2023/08/03 11:19:54;;;;;;;9.03;2.83;;;;;;;;;;5012159;28;20227;-86
2023/08/03 11:22:23;;;;;;;6.47;2.63;;;;;;;;;;5012429;28;20209;-86
2023/08/03 11:24:54;;;;;;;5.20;3.97;;;;;;;;;;5012623;28;20212;-86
2023/08/03 11:27:25;;;;;;;2.53;2.00;;;;;;;;;;5011995;28;20203;-82
2023/08/03 11:29:54;;;;;;;5.33;2.30;;;;;;;;;;5012614;28;20454;-82
2023/08/03 11:32:23;;;;;;;7.23;2.90;;;;;;;;;;5012334;28;20221;-82
2023/08/03 11:34:57;;;;;;;3.77;2.30;;;;;;;;;;5012647;28;20297;-82
2023/08/03 11:37:29;;;;;;;5.37;2.33;;;;;;;;;;5011680;28;20203;-82
2023/08/03 11:39:58;;;;;;;9.27;2.57;;;;;;;;;;5012345;28;20251;-82
2023/08/03 11:42:29;;;;;;;5.60;2.33;;;;;;;;;;5012231;28;20203;-82
2023/08/03 11:44:58;;;;;;;16.07;3.13;;;;;;;;;;5012573;28;20252;-82
2023/08/03 11:47:26;;;;;;;4.03;2.17;;;;;;;;;;5012248;28;20201;-85
2023/08/03 11:49:56;;;;;;;2.57;2.07;;;;;;;;;;5012415;28;20208;-86
2023/08/03 11:52:25;;;;;;;2.20;1.70;;;;;;;;;;5012446;28;20210;-86
2023/08/03 11:54:53;;;;;;;4.93;1.73;;;;;;;;;;5012054;28;20227;-85
2023/08/03 12:00:14;;;;;;;6.40;2.60;;;;;;;;;;5011643;28;20232;-85
2023/08/03 12:02:44;;;;;;;10.60;3.43;;;;;;;;;;5012158;28;20234;-85
2023/08/03 12:05:12;;;;;;;3.50;1.80;;;;;;;;;;5015752;28;20214;-86
2023/08/03 12:07:54;;;;;;;4.43;1.90;;;;;;;;;;5015739;28;20235;-86
2023/08/03 12:10:25;;;;;;;2.17;1.40;;;;;;;;;;5016070;28;20235;-86
2023/08/03 12:12:55;;;;;;;3.90;1.23;;;;;;;;;;5016170;28;20204;-86
2023/08/03 12:15:28;;;;;;;4.77;2.10;;;;;;;;;;5015899;28;20195;-86
2023/08/03 12:17:57;;;;;;;13.37;2.63;;;;;;;;;;5016697;28;20207;-85
2023/08/03 12:20:25;;;;;;;3.77;1.83;;;;;;;;;;5015243;28;20237;-86
2023/08/03 12:22:55;;;;;;;1.50;1.27;;;;;;;;;;5015740;28;20301;-85
2023/08/03 12:25:29;;;;;;;5.57;1.90;;;;;;;;;;5016022;28;20238;-86
2023/08/03 12:27:59;;;;;;;6.50;1.47;;;;;;;;;;5017674;28;20246;-86
2023/08/03 12:30:29;;;;;;;2.30;1.53;;;;;;;;;;5014912;28;20219;-85
2023/08/03 12:32:58;;;;;;;8.90;2.40;;;;;;;;;;5015424;28;20207;-86
2023/08/03 12:35:27;;;;;;;6.87;2.67;;;;;;;;;;5015500;28;20294;-86
2023/08/03 12:37:55;;;;;;;5.60;1.90;;;;;;;;;;5015113;28;20235;-82
2023/08/03 12:40:27;;;;;;;10.13;2.63;;;;;;;;;;5015235;28;20221;-82
2023/08/03 12:42:55;;;;;;;3.37;2.80;;;;;;;;;;5015599;28;20208;-82
2023/08/03 12:45:25;;;;;;;2.70;1.87;;;;;;;;;;5015812;28;20203;-82
2023/08/03 12:47:55;;;;;;;5.80;2.00;;;;;;;;;;5014952;28;20230;-82
2023/08/03 12:50:28;;;;;;;3.97;1.87;;;;;;;;;;5015116;28;20203;-82
2023/08/03 12:52:56;;;;;;;7.87;2.40;;;;;;;;;;5015822;28;20201;-82
2023/08/03 12:55:25;;;;;;;22.13;3.03;;;;;;;;;;5015371;28;20210;-82
2023/08/03 12:57:53;;;;;;;4.33;2.20;;;;;;;;;;5015463;28;20202;-83
2023/08/03 13:00:23;;;;;;;5.13;1.87;;;;;;;;;;5014687;28;20225;-82
2023/08/03 13:02:52;;;;;;;6.63;2.37;;;;;;;;;;5015233;28;20225;-82
2023/08/03 13:05:22;;;;;;;2.43;1.50;;;;;;;;;;5015074;28;20254;-81
2023/08/03 13:07:53;;;;;;;6.87;2.03;;;;;;;;;;5014843;28;20262;-82
2023/08/03 13:10:22;;;;;;;3.00;1.53;;;;;;;;;;5015112;28;20203;-82
2023/08/03 13:12:50;;;;;;;11.93;2.13;;;;;;;;;;5014829;28;20229;-82
2023/08/03 13:15:29;;;;;;;3.90;1.47;;;;;;;;;;5014017;28;20199;-82
2023/08/03 13:17:58;;;;;;;4.63;2.50;;;;;;;;;;5014743;28;20211;-81
2023/08/03 13:20:30;;;;;;;8.60;1.90;;;;;;;;;;5014743;28;20541;-82
2023/08/03 13:22:59;;;;;;;1.73;1.33;;;;;;;;;;5014604;28;20211;-81
2023/08/03 13:25:28;;;;;;;4.37;1.47;;;;;;;;;;5014966;28;20229;-82
2023/08/03 13:27:56;;;;;;;6.43;2.60;;;;;;;;;;5014992;28;20237;-82
2023/08/03 13:30:25;;;;;;;4.77;1.93;;;;;;;;;;5014447;28;20223;-82
2023/08/03 13:32:53;;;;;;;4.30;2.13;;;;;;;;;;5014951;28;20210;-82
2023/08/03 13:35:22;;;;;;;3.23;1.73;;;;;;;;;;5014769;28;20280;-82
2023/08/03 13:37:55;;;;;;;4.70;2.30;;;;;;;;;;5015035;28;20256;-82
2023/08/03 13:40:24;;;;;;;5.47;2.30;;;;;;;;;;5014241;28;20228;-83
2023/08/03 13:42:53;;;;;;;13.03;3.27;;;;;;;;;;5014071;28;20215;-83
2023/08/03 13:45:21;;;;;;;3.23;2.10;;;;;;;;;;5014663;28;20294;-82
2023/08/03 13:47:50;;;;;;;6.90;2.27;;;;;;;;;;5014675;28;20208;-82
2023/08/03 13:50:20;;;;;;;11.37;2.37;;;;;;;;;;5013872;28;20203;-82
2023/08/03 13:52:49;;;;;;;8.47;3.37;;;;;;;;;;5014471;28;20204;-81
2023/08/03 13:55:19;;;;;;;9.70;2.63;;;;;;;;;;5014175;28;20205;-82
2023/08/03 13:57:47;;;;;;;4.43;2.00;;;;;;;;;;5014396;28;20203;-83
2023/08/03 14:00:32;;;;;;;9.17;1.57;;;;;;;;;;5013955;28;20218;-85
2023/08/03 14:03:17;;;;;;;5.80;2.20;;;;;;;;;;5014453;28;20233;-86
2023/08/03 14:06:02;;;;;;;6.83;2.20;;;;;;;;;;5014055;28;20233;-85
2023/08/03 14:08:38;;;;;;;2.90;1.53;;;;;;;;;;5013848;28;20205;-86
2023/08/03 14:11:12;;;;;;;6.70;2.40;;;;;;;;;;5013831;28;20200;-85
2023/08/03 14:13:44;;;;;;;1.97;1.83;;;;;;;;;;5013690;28;20208;-83
2023/08/03 14:16:17;;;;;;;5.20;2.00;;;;;;;;;;5013672;28;20188;-83
2023/08/03 14:18:49;;;;;;;2.43;1.47;;;;;;;;;;5013959;28;20198;-83
2023/08/03 14:21:17;;;;;;;1.83;1.73;;;;;;;;;;5013770;28;20283;-82
2023/08/03 14:24:06;;;;;;;4.90;1.17;;;;;;;;;;5013201;28;20289;-82
2023/08/03 14:26:36;;;;;;;6.70;2.47;;;;;;;;;;5012720;28;20254;-82
2023/08/03 14:29:04;;;;;;;3.87;1.67;;;;;;;;;;5013858;28;20204;-82
2023/08/03 14:31:33;;;;;;;17.77;1.60;;;;;;;;;;5013803;28;20214;-82
2023/08/03 14:34:02;;;;;;;1.57;1.13;;;;;;;;;;5013619;28;20228;-84
2023/08/03 14:36:31;;;;;;;3.77;1.83;;;;;;;;;;5013534;28;20212;-84
2023/08/03 14:39:00;;;;;;;5.73;1.93;;;;;;;;;;5013667;28;20229;-85
2023/08/03 14:41:28;;;;;;;1.80;1.57;;;;;;;;;;5012522;28;20252;-85
2023/08/03 14:43:58;;;;;;;0.77;0.77;;;;;;;;;;5013252;28;20252;-85
2023/08/03 14:46:30;;;;;;;4.03;1.13;;;;;;;;;;5013536;28;20219;-85
2023/08/03 14:48:59;;;;;;;7.17;2.10;;;;;;;;;;5013588;28;20235;-86
2023/08/03 14:51:39;;;;;;;1.27;0.97;;;;;;;;;;5012700;28;20211;-85
2023/08/03 14:54:10;;;;;;;8.67;1.87;;;;;;;;;;5013520;28;20200;-85
2023/08/03 14:56:39;;;;;;;5.27;2.23;;;;;;;;;;5013376;28;20195;-85
2023/08/03 14:59:08;;;;;;;1.27;1.20;;;;;;;;;;5013186;28;20211;-85
2023/08/03 15:01:37;;;;;;;5.63;2.23;;;;;;;;;;5012330;28;20277;-85
2023/08/03 15:04:05;;;;;;;6.30;3.53;;;;;;;;;;5013202;28;20242;-85